Ivs Hirono — 9V3263 — position and weather

sailwx.info

Track history (hours):
 
Tides and Currents Weather Stations Pressure Air Temp Water Temp Dewpoint Dewpoint Depression Visibility Wind Speed Wind Dir Waves Ship Positions

Ivs Hirono

Last reported at 2018-May-09 15:11 UTC. Time now 2018-May-22 19:47 UTC.
Position S 28°38' E 033°17'.
Warning: this ship's position is 13 days out of date.

Length 199 m; draft 12.4 m.

Type: Cargo ship. MMSI: 563094000.

Date/timePositionNaut miles runAvg speedWind from/ knotsBaromVisibWave heightAir tempDewpointWater temp
2018-May-09 15:11S 28°38' E 033°17'310.3
2018-May-09 14:53S 28°39' E 033°13'4 9.9
2018-May-09 14:30S 28°40' E 033°09'5 9.8
2018-May-09 14:00S 28°41' E 033°04'5 9.7
2018-May-09 13:27S 28°42' E 032°58'7 9.5
2018-May-09 12:42S 28°43' E 032°50'2 9.6
2018-May-09 12:26S 28°44' E 032°47'4 9.5
2018-May-09 12:00S 28°44' E 032°42'5 9.5
2018-May-09 11:29S 28°46' E 032°37'4 9.3
2018-May-09 11:00S 28°46' E 032°32'5 9.1
2018-May-09 10:30S 28°47' E 032°27'4 8.8
2018-May-09 10:00S 28°48' E 032°22'5 8.9
2018-May-09 09:30S 28°49' E 032°17'510.8
2018-May-09 09:00S 28°50' E 032°11'510.8
2018-May-09 08:30S 28°48' E 032°05'2 3.3
2018-May-09 07:58S 28°49' E 032°03'0 0.0
2018-May-09 07:25S 28°49' E 032°03'0 0.0
2018-May-09 06:55S 28°49' E 032°03'0 0.0
2018-May-09 06:25S 28°49' E 032°03'0 0.0
2018-May-09 05:43S 28°49' E 032°03'0 0.0
2018-May-09 05:28S 28°49' E 032°03'0 0.0
2018-May-09 04:55S 28°49' E 032°03'0 0.0
2018-May-09 04:19S 28°49' E 032°03'0 0.0
2018-May-09 03:58S 28°49' E 032°03'0 0.0
2018-May-09 03:25S 28°49' E 032°03'0 0.0
2018-May-09 02:55S 28°49' E 032°03'0 0.0
2018-May-09 02:25S 28°49' E 032°03'0 0.0
2018-May-09 01:55S 28°49' E 032°03'0 0.0
2018-May-09 01:28S 28°49' E 032°03'0 0.0
2018-May-09 00:31S 28°49' E 032°03'0 0.0
2018-May-09 00:25S 28°49' E 032°03'0 0.0
2018-May-08 23:55S 28°49' E 032°03'0 0.0
2018-May-08 23:28S 28°49' E 032°03'0 0.0
2018-May-08 22:55S 28°49' E 032°03'0 0.0
2018-May-08 22:25S 28°49' E 032°03'0 0.0
2018-May-08 21:55S 28°49' E 032°03'0 0.0
2018-May-08 21:28S 28°49' E 032°03'0 0.0
2018-May-08 20:55S 28°49' E 032°03'0 0.0
2018-May-08 20:28S 28°49' E 032°03'0 0.0
2018-May-08 19:58S 28°49' E 032°03'0 0.0
2018-May-08 19:25S 28°49' E 032°03'0 0.0
2018-May-08 18:58S 28°49' E 032°03'0 0.0
2018-May-08 16:43S 28°49' E 032°03'0 0.0
2018-May-08 16:25S 28°49' E 032°03'0 0.0
2018-May-08 15:55S 28°49' E 032°03'0 0.0
2018-May-08 15:19S 28°49' E 032°03'0 0.0
2018-May-08 14:58S 28°49' E 032°03'0 0.0
2018-May-08 14:28S 28°49' E 032°03'0 0.0
2018-May-08 13:49S 28°49' E 032°03'0 0.0
2018-May-08 13:19S 28°49' E 032°03'0 0.0
2018-May-08 12:58S 28°49' E 032°03'0 0.0
2018-May-08 12:25S 28°49' E 032°03'0 0.0
2018-May-08 11:25S 28°49' E 032°03'0 0.0
2018-May-08 10:55S 28°49' E 032°03'0 0.0
2018-May-08 10:25S 28°49' E 032°03'0 0.1
2018-May-08 09:55S 28°49' E 032°03'2 4.2
2018-May-08 09:23S 28°49' E 032°06'3 8.7
2018-May-08 09:00S 28°51' E 032°08'2 3.3
2018-May-08 08:30S 28°52' E 032°09'4 8.7
2018-May-08 08:00S 28°57' E 032°08'2 3.2
2018-May-08 07:22S 28°59' E 032°08'0 0.0
2018-May-08 06:46S 28°59' E 032°08'0 0.0
2018-May-08 06:28S 28°59' E 032°08'0 0.0
2018-May-08 05:58S 28°59' E 032°08'0 0.0
2018-May-08 05:28S 28°59' E 032°08'0 0.0
2018-May-08 04:52S 28°59' E 032°08'0 0.0
2018-May-08 04:28S 28°59' E 032°08'0 0.0
2018-May-08 03:43S 28°59' E 032°08'0 0.0
2018-May-08 03:28S 28°59' E 032°08'0 0.0
2018-May-08 02:55S 28°59' E 032°08'0 0.0
2018-May-08 02:28S 28°59' E 032°08'0 0.0
2018-May-08 01:58S 28°59' E 032°08'0 0.0
2018-May-08 00:49S 28°59' E 032°08'0 0.0
2018-May-08 00:25S 28°59' E 032°08'0 0.0
2018-May-07 23:58S 28°59' E 032°08'0 0.0
2018-May-07 23:28S 28°59' E 032°08'0 0.0
2018-May-07 22:58S 28°59' E 032°08'0 0.0
2018-May-07 22:28S 28°59' E 032°08'0 0.0
2018-May-07 21:58S 28°59' E 032°08'0 0.0
2018-May-07 21:28S 28°59' E 032°08'0 0.0
2018-May-07 20:58S 28°59' E 032°08'0 0.0
2018-May-07 20:28S 28°59' E 032°08'0 0.0
2018-May-07 19:58S 28°59' E 032°08'0 0.0
2018-May-07 19:28S 28°59' E 032°08'0 0.0
2018-May-07 18:58S 28°59' E 032°08'0 0.0
2018-May-07 18:28S 28°59' E 032°08'0 0.0
2018-May-07 17:58S 28°59' E 032°08'0 0.0
2018-May-07 17:28S 28°59' E 032°08'0 0.0
2018-May-07 16:58S 28°59' E 032°08'0 0.0
2018-May-07 16:28S 28°59' E 032°08'0 0.0
2018-May-07 15:58S 28°59' E 032°08'0 0.0
2018-May-07 15:28S 28°59' E 032°08'0 0.0
2018-May-07 14:58S 28°59' E 032°08'0 0.0
2018-May-07 14:28S 28°59' E 032°08'0 0.0
2018-May-07 13:58S 28°59' E 032°08'0 0.0
2018-May-07 13:28S 28°59' E 032°08'0 0.0
2018-May-07 12:58S 28°59' E 032°08'0 0.0
2018-May-07 12:28S 28°59' E 032°08'0 0.0
2018-May-07 11:58S 28°59' E 032°08'0 0.0
2018-May-07 11:28S 28°59' E 032°08'0 0.0
2018-May-07 10:58S 28°59' E 032°08'0 0.4
2018-May-07 10:30S 28°58' E 032°08'3 5.2
2018-May-07 10:00S 28°56' E 032°09'511.1
2018-May-07 09:30S 28°51' E 032°12'611.1
2018-May-07 09:00S 28°50' E 032°18'611.0
2018-May-07 08:30S 28°49' E 032°24'714.3
2018-May-07 08:00S 28°47' E 032°32'713.6
2018-May-07 07:29S 28°46' E 032°40'813.5
2018-May-07 06:55S 28°44' E 032°48'613.7
2018-May-07 06:31S 28°43' E 032°55'2513.9
2018-May-07 04:42S 28°38' E 033°23'913.9
2018-May-07 04:01S 28°37' E 033°33'213.7
2018-May-07 03:52S 28°36' E 033°36'1013.6
2018-May-07 03:10S 28°34' E 033°46'613.7
2018-May-07 02:45S 28°33' E 033°53'6013.7
2018-May-06 22:23S 28°22' E 034°59'613.5
2018-May-06 21:56S 28°21' E 035°06'2113.7
2018-May-06 20:25S 28°17' E 035°29'  
Track history (hours):
 
Tides and Currents Weather Stations Pressure Air Temp Water Temp Dewpoint Dewpoint Depression Visibility Wind Speed Wind Dir Waves Ship Positions

Ivs Hirono

Last reported at 2018-May-09 15:11 UTC. Time now 2018-May-22 19:47 UTC.
Position S 28°38' E 033°17'.
Warning: this ship's position is 13 days out of date.

Length 199 m; draft 12.4 m.

Type: Cargo ship. MMSI: 563094000.

Date/timePositionNaut miles runAvg speedWind from/ knotsBaromVisibWave heightAir tempDewpointWater temp
2018-May-09 15:11S 28°38' E 033°17'310.3
2018-May-09 14:53S 28°39' E 033°13'4 9.9
2018-May-09 14:30S 28°40' E 033°09'5 9.8
2018-May-09 14:00S 28°41' E 033°04'5 9.7
2018-May-09 13:27S 28°42' E 032°58'7 9.5
2018-May-09 12:42S 28°43' E 032°50'2 9.6
2018-May-09 12:26S 28°44' E 032°47'4 9.5
2018-May-09 12:00S 28°44' E 032°42'5 9.5
2018-May-09 11:29S 28°46' E 032°37'4 9.3
2018-May-09 11:00S 28°46' E 032°32'5 9.1
2018-May-09 10:30S 28°47' E 032°27'4 8.8
2018-May-09 10:00S 28°48' E 032°22'5 8.9
2018-May-09 09:30S 28°49' E 032°17'510.8
2018-May-09 09:00S 28°50' E 032°11'510.8
2018-May-09 08:30S 28°48' E 032°05'2 3.3
2018-May-09 07:58S 28°49' E 032°03'0 0.0
2018-May-09 07:25S 28°49' E 032°03'0 0.0
2018-May-09 06:55S 28°49' E 032°03'0 0.0
2018-May-09 06:25S 28°49' E 032°03'0 0.0
2018-May-09 05:43S 28°49' E 032°03'0 0.0
2018-May-09 05:28S 28°49' E 032°03'0 0.0
2018-May-09 04:55S 28°49' E 032°03'0 0.0
2018-May-09 04:19S 28°49' E 032°03'0 0.0
2018-May-09 03:58S 28°49' E 032°03'0 0.0
2018-May-09 03:25S 28°49' E 032°03'0 0.0
2018-May-09 02:55S 28°49' E 032°03'0 0.0
2018-May-09 02:25S 28°49' E 032°03'0 0.0
2018-May-09 01:55S 28°49' E 032°03'0 0.0
2018-May-09 01:28S 28°49' E 032°03'0 0.0
2018-May-09 00:31S 28°49' E 032°03'0 0.0
2018-May-09 00:25S 28°49' E 032°03'0 0.0
2018-May-08 23:55S 28°49' E 032°03'0 0.0
2018-May-08 23:28S 28°49' E 032°03'0 0.0
2018-May-08 22:55S 28°49' E 032°03'0 0.0
2018-May-08 22:25S 28°49' E 032°03'0 0.0
2018-May-08 21:55S 28°49' E 032°03'0 0.0
2018-May-08 21:28S 28°49' E 032°03'0 0.0
2018-May-08 20:55S 28°49' E 032°03'0 0.0
2018-May-08 20:28S 28°49' E 032°03'0 0.0
2018-May-08 19:58S 28°49' E 032°03'0 0.0
2018-May-08 19:25S 28°49' E 032°03'0 0.0
2018-May-08 18:58S 28°49' E 032°03'0 0.0
2018-May-08 16:43S 28°49' E 032°03'0 0.0
2018-May-08 16:25S 28°49' E 032°03'0 0.0
2018-May-08 15:55S 28°49' E 032°03'0 0.0
2018-May-08 15:19S 28°49' E 032°03'0 0.0
2018-May-08 14:58S 28°49' E 032°03'0 0.0
2018-May-08 14:28S 28°49' E 032°03'0 0.0
2018-May-08 13:49S 28°49' E 032°03'0 0.0
2018-May-08 13:19S 28°49' E 032°03'0 0.0
2018-May-08 12:58S 28°49' E 032°03'0 0.0
2018-May-08 12:25S 28°49' E 032°03'0 0.0
2018-May-08 11:25S 28°49' E 032°03'0 0.0
2018-May-08 10:55S 28°49' E 032°03'0 0.0
2018-May-08 10:25S 28°49' E 032°03'0 0.1
2018-May-08 09:55S 28°49' E 032°03'2 4.2
2018-May-08 09:23S 28°49' E 032°06'3 8.7
2018-May-08 09:00S 28°51' E 032°08'2 3.3
2018-May-08 08:30S 28°52' E 032°09'4 8.7
2018-May-08 08:00S 28°57' E 032°08'2 3.2
2018-May-08 07:22S 28°59' E 032°08'0 0.0
2018-May-08 06:46S 28°59' E 032°08'0 0.0
2018-May-08 06:28S 28°59' E 032°08'0 0.0
2018-May-08 05:58S 28°59' E 032°08'0 0.0
2018-May-08 05:28S 28°59' E 032°08'0 0.0
2018-May-08 04:52S 28°59' E 032°08'0 0.0
2018-May-08 04:28S 28°59' E 032°08'0 0.0
2018-May-08 03:43S 28°59' E 032°08'0 0.0
2018-May-08 03:28S 28°59' E 032°08'0 0.0
2018-May-08 02:55S 28°59' E 032°08'0 0.0
2018-May-08 02:28S 28°59' E 032°08'0 0.0
2018-May-08 01:58S 28°59' E 032°08'0 0.0
2018-May-08 00:49S 28°59' E 032°08'0 0.0
2018-May-08 00:25S 28°59' E 032°08'0 0.0
2018-May-07 23:58S 28°59' E 032°08'0 0.0
2018-May-07 23:28S 28°59' E 032°08'0 0.0
2018-May-07 22:58S 28°59' E 032°08'0 0.0
2018-May-07 22:28S 28°59' E 032°08'0 0.0
2018-May-07 21:58S 28°59' E 032°08'0 0.0
2018-May-07 21:28S 28°59' E 032°08'0 0.0
2018-May-07 20:58S 28°59' E 032°08'0 0.0
2018-May-07 20:28S 28°59' E 032°08'0 0.0
2018-May-07 19:58S 28°59' E 032°08'0 0.0
2018-May-07 19:28S 28°59' E 032°08'0 0.0
2018-May-07 18:58S 28°59' E 032°08'0 0.0
2018-May-07 18:28S 28°59' E 032°08'0 0.0
2018-May-07 17:58S 28°59' E 032°08'0 0.0
2018-May-07 17:28S 28°59' E 032°08'0 0.0
2018-May-07 16:58S 28°59' E 032°08'0 0.0
2018-May-07 16:28S 28°59' E 032°08'0 0.0
2018-May-07 15:58S 28°59' E 032°08'0 0.0
2018-May-07 15:28S 28°59' E 032°08'0 0.0
2018-May-07 14:58S 28°59' E 032°08'0 0.0
2018-May-07 14:28S 28°59' E 032°08'0 0.0
2018-May-07 13:58S 28°59' E 032°08'0 0.0
2018-May-07 13:28S 28°59' E 032°08'0 0.0
2018-May-07 12:58S 28°59' E 032°08'0 0.0
2018-May-07 12:28S 28°59' E 032°08'0 0.0
2018-May-07 11:58S 28°59' E 032°08'0 0.0
2018-May-07 11:28S 28°59' E 032°08'0 0.0
2018-May-07 10:58S 28°59' E 032°08'0 0.4
2018-May-07 10:30S 28°58' E 032°08'3 5.2
2018-May-07 10:00S 28°56' E 032°09'511.1
2018-May-07 09:30S 28°51' E 032°12'611.1
2018-May-07 09:00S 28°50' E 032°18'611.0
2018-May-07 08:30S 28°49' E 032°24'714.3
2018-May-07 08:00S 28°47' E 032°32'713.6
2018-May-07 07:29S 28°46' E 032°40'813.5
2018-May-07 06:55S 28°44' E 032°48'613.7
2018-May-07 06:31S 28°43' E 032°55'2513.9
2018-May-07 04:42S 28°38' E 033°23'913.9
2018-May-07 04:01S 28°37' E 033°33'213.7
2018-May-07 03:52S 28°36' E 033°36'1013.6
2018-May-07 03:10S 28°34' E 033°46'613.7
2018-May-07 02:45S 28°33' E 033°53'6013.7
2018-May-06 22:23S 28°22' E 034°59'613.5
2018-May-06 21:56S 28°21' E 035°06'2113.7
2018-May-06 20:25S 28°17' E 035°29'  

Dump ship's entire track history